createdAt,value
2022-09-30T00:00:00.338Z,91.3
2022-09-30T00:05:00.313Z,91.3
2022-09-30T00:10:00.411Z,91.9
2022-09-30T00:15:00.334Z,91.9
2022-09-30T00:20:00.376Z,91.9
2022-09-30T00:25:00.564Z,91.9
2022-09-30T00:30:00.448Z,91.2
2022-09-30T00:35:00.444Z,91.9
2022-09-30T00:40:00.404Z,91.8
2022-09-30T00:45:00.407Z,91.8
2022-09-30T00:50:00.387Z,91.8
2022-09-30T00:55:00.388Z,91.2
2022-09-30T01:00:00.389Z,91.2
2022-09-30T01:05:00.361Z,91.2
2022-09-30T01:10:00.362Z,91.2
2022-09-30T01:15:00.378Z,91.1
2022-09-30T01:20:00.367Z,91.4
2022-09-30T01:25:00.434Z,91.1
2022-09-30T01:30:00.433Z,91.7
2022-09-30T01:35:00.428Z,91.7
2022-09-30T01:40:00.396Z,91.7
2022-09-30T01:45:00.406Z,92
2022-09-30T01:50:00.462Z,92.6
2022-09-30T01:55:00.417Z,92.6
2022-09-30T02:00:00.407Z,92.9
2022-09-30T02:05:01.372Z,93.6
2022-09-30T02:10:01.419Z,93.6
2022-09-30T02:15:01.362Z,93.3
2022-09-30T02:20:01.402Z,93
2022-09-30T02:25:01.342Z,92.9
2022-09-30T02:30:01.415Z,93.3
2022-09-30T02:35:01.310Z,93.3
2022-09-30T02:40:01.343Z,93.3
2022-09-30T02:45:01.343Z,92.9
2022-09-30T02:50:01.363Z,93.2
2022-09-30T02:55:01.433Z,93.6
2022-09-30T03:00:03.407Z,93.3
2022-09-30T03:05:01.537Z,93.3
2022-09-30T03:10:01.576Z,93.6
2022-09-30T03:15:01.451Z,93
2022-09-30T03:20:01.548Z,93
2022-09-30T03:25:01.410Z,92.6
2022-09-30T03:30:01.534Z,92.7
2022-09-30T03:35:01.490Z,93
2022-09-30T03:40:01.472Z,92.6
2022-09-30T03:45:01.497Z,93
2022-09-30T03:50:01.442Z,93
2022-09-30T03:55:01.440Z,93.3
2022-09-30T04:00:01.769Z,93.3
2022-09-30T04:05:01.433Z,93.3
2022-09-30T04:10:01.422Z,93.3
2022-09-30T04:15:01.504Z,93
2022-09-30T04:20:01.581Z,93
2022-09-30T04:25:00.275Z,92.7
2022-09-30T04:30:00.293Z,93.3
2022-09-30T04:35:00.287Z,93.3
2022-09-30T04:40:00.299Z,93.6
2022-09-30T04:45:00.345Z,93.6
2022-09-30T04:50:00.371Z,93.6
2022-09-30T04:55:00.438Z,93.3
2022-09-30T05:00:02.885Z,93.6
2022-09-30T05:05:00.497Z,93.3
2022-09-30T05:10:00.766Z,93.3
2022-09-30T05:15:00.607Z,93
2022-09-30T05:20:00.550Z,93.3
2022-09-30T05:25:00.570Z,93.3
2022-09-30T05:30:00.513Z,93.3
2022-09-30T05:35:00.354Z,93
2022-09-30T05:40:00.362Z,93
2022-09-30T05:45:00.373Z,93.1
2022-09-30T05:50:00.396Z,93
2022-09-30T05:55:00.817Z,93.4
2022-09-30T06:00:00.369Z,93.1
2022-09-30T06:05:00.360Z,93.1
2022-09-30T06:10:00.407Z,93.1
2022-09-30T06:15:00.530Z,93.1
2022-09-30T06:20:00.465Z,93.1
2022-09-30T06:25:00.622Z,92.8
2022-09-30T06:30:00.461Z,92.2
2022-09-30T06:35:00.418Z,91.9
2022-09-30T06:40:00.500Z,91.9
2022-09-30T06:45:00.424Z,92
2022-09-30T06:50:00.426Z,92
2022-09-30T06:55:00.435Z,91
2022-09-30T07:00:00.441Z,91
2022-09-30T07:05:00.419Z,90.8
2022-09-30T07:10:00.429Z,90.5
2022-09-30T07:15:00.480Z,90.2
2022-09-30T07:20:00.462Z,89.6
2022-09-30T07:25:00.435Z,89
2022-09-30T07:30:12.591Z,89
2022-09-30T07:35:00.456Z,88.4
2022-09-30T07:40:00.526Z,87.8
2022-09-30T07:45:00.461Z,87.8
2022-09-30T07:50:00.479Z,87.8
2022-09-30T07:55:00.525Z,86.8
2022-09-30T08:00:16.976Z,85.9
2022-09-30T08:05:00.520Z,86.6
2022-09-30T08:10:00.616Z,86.6
2022-09-30T08:15:00.556Z,85.7
2022-09-30T08:20:00.602Z,85.4
2022-09-30T08:25:00.534Z,85.1
2022-09-30T08:30:04.657Z,84.8
2022-09-30T08:35:00.538Z,84.1
2022-09-30T08:40:00.563Z,84.1
2022-09-30T08:45:00.530Z,84.8
2022-09-30T08:50:00.534Z,84.8
2022-09-30T08:55:00.608Z,83.9
2022-09-30T09:00:00.596Z,83.6
2022-09-30T09:05:00.590Z,83
2022-09-30T09:10:00.649Z,82.3
2022-09-30T09:15:00.637Z,83
2022-09-30T09:20:00.579Z,82.4
2022-09-30T09:25:00.547Z,81.7
2022-09-30T09:30:00.559Z,81.5
2022-09-30T09:35:00.611Z,81.2
2022-09-30T09:40:04.127Z,79.9
2022-09-30T09:45:01.163Z,77.4
2022-09-30T09:50:01.240Z,79.3
2022-09-30T09:55:00.988Z,79
2022-09-30T10:05:00.627Z,79.9
2022-09-30T10:10:00.653Z,79.7
2022-09-30T10:15:00.647Z,77.2
2022-09-30T10:20:00.636Z,77.2
2022-09-30T10:25:00.462Z,75.6
2022-09-30T10:30:00.367Z,75.6
2022-09-30T10:35:00.206Z,76.2
2022-09-30T10:40:00.200Z,76.5
2022-09-30T10:45:00.206Z,75.9
2022-09-30T10:50:00.219Z,76.3
2022-09-30T10:55:00.280Z,74.4
2022-09-30T11:00:00.235Z,75.7
2022-09-30T11:05:00.226Z,72.6
2022-09-30T11:10:00.241Z,72
2022-09-30T11:15:00.238Z,71.4
2022-09-30T11:20:00.245Z,70.2
2022-09-30T11:25:00.270Z,69.5
2022-09-30T11:30:00.251Z,69
2022-09-30T11:35:00.253Z,68.7
2022-09-30T11:40:00.337Z,69.7
2022-09-30T11:45:00.325Z,68.8
2022-09-30T11:50:00.280Z,68.4
2022-09-30T11:55:00.336Z,65.8
2022-09-30T12:00:00.303Z,68.3
2022-09-30T12:05:00.350Z,66.6
2022-09-30T12:10:00.292Z,67.6
2022-09-30T12:15:00.342Z,68.8
2022-09-30T12:20:00.298Z,70.1
2022-09-30T12:25:00.365Z,71
2022-09-30T12:30:00.324Z,71.3
2022-09-30T12:35:00.338Z,70.3
2022-09-30T12:40:00.335Z,70
2022-09-30T12:45:00.335Z,69.4
2022-09-30T12:50:00.413Z,69.8
2022-09-30T12:55:00.348Z,68.3
2022-09-30T13:00:00.352Z,64.3
2022-09-30T13:05:00.381Z,66.6
2022-09-30T13:10:00.378Z,64.1
2022-09-30T13:15:00.407Z,61.8
2022-09-30T13:20:00.412Z,63.3
2022-09-30T13:25:00.412Z,63.2
2022-09-30T13:30:00.657Z,66
2022-09-30T13:35:00.460Z,68.2
2022-09-30T13:40:00.514Z,68.8
2022-09-30T13:45:00.502Z,68.9
2022-09-30T13:50:00.497Z,68.2
2022-09-30T13:55:00.435Z,67.9
2022-09-30T14:00:00.491Z,67.2
2022-09-30T14:05:00.442Z,67.9
2022-09-30T14:10:00.864Z,67.5
2022-09-30T14:15:00.578Z,68.8
2022-09-30T14:20:00.466Z,68.8
2022-09-30T14:25:00.462Z,67.9
2022-09-30T14:30:00.520Z,66.9
2022-09-30T14:35:00.571Z,67.5
2022-09-30T14:40:00.702Z,68.8
2022-09-30T14:45:00.909Z,68.1
2022-09-30T14:50:00.875Z,69.4
2022-09-30T14:55:00.668Z,67.5
2022-09-30T15:00:01.066Z,69.4
2022-09-30T15:05:01.483Z,68.5
2022-09-30T15:10:00.518Z,68.8
2022-09-30T15:15:00.471Z,68.1
2022-09-30T15:20:00.506Z,69.1
2022-09-30T15:25:00.499Z,70.3
2022-09-30T15:30:00.534Z,70.6
2022-09-30T15:35:00.573Z,70.6
2022-09-30T15:40:00.823Z,70.6
2022-09-30T15:45:00.585Z,70.9
2022-09-30T15:50:00.659Z,71.8
2022-09-30T15:55:00.555Z,73.4
2022-09-30T16:00:00.689Z,73.7
2022-09-30T16:05:00.597Z,74
2022-09-30T16:10:00.625Z,74.9
2022-09-30T16:15:00.590Z,75.5
2022-09-30T16:20:00.677Z,76.1
2022-09-30T16:25:00.452Z,77.4
2022-09-30T16:30:00.397Z,77.3
2022-09-30T16:35:00.253Z,78
2022-09-30T16:40:00.324Z,78.6
2022-09-30T16:45:00.282Z,78.6
2022-09-30T16:50:00.267Z,79.2
2022-09-30T16:55:00.218Z,80.4
2022-09-30T17:00:00.460Z,80.7
2022-09-30T17:05:00.235Z,80.7
2022-09-30T17:10:00.425Z,80.7
2022-09-30T17:15:00.261Z,81.7
2022-09-30T17:20:00.424Z,82
2022-09-30T17:25:00.363Z,82
2022-09-30T17:30:00.367Z,81.7
2022-09-30T17:35:00.298Z,81.6
2022-09-30T17:40:00.270Z,82
2022-09-30T17:45:00.282Z,82.6
2022-09-30T17:50:00.425Z,82.3
2022-09-30T17:55:00.424Z,82.6
2022-09-30T18:00:00.410Z,82.5
2022-09-30T18:05:00.366Z,82.5
2022-09-30T18:10:00.378Z,82.5
2022-09-30T18:15:00.410Z,82.5
2022-09-30T18:20:00.357Z,82.8
2022-09-30T18:25:00.364Z,82.8
2022-09-30T18:30:00.366Z,84
2022-09-30T18:35:00.316Z,84.6
2022-09-30T18:40:00.370Z,84.6
2022-09-30T18:45:00.358Z,84.5
2022-09-30T18:50:00.363Z,84.8
2022-09-30T18:55:00.350Z,85.1
2022-09-30T19:00:00.353Z,85.7
2022-09-30T19:05:00.413Z,85.1
2022-09-30T19:10:00.364Z,85.7
2022-09-30T19:15:00.365Z,85.9
2022-09-30T19:20:00.402Z,86.5
2022-09-30T19:25:00.391Z,86.5
2022-09-30T19:30:00.388Z,86.8
2022-09-30T19:35:05.898Z,86.2
2022-09-30T19:40:07.207Z,86.8
2022-09-30T19:45:00.387Z,87.4
2022-09-30T19:50:00.419Z,88
2022-09-30T19:55:10.068Z,88
2022-09-30T20:00:04.822Z,88.3
2022-09-30T20:05:00.616Z,88.9
2022-09-30T20:10:00.672Z,89.2
2022-09-30T20:15:00.698Z,89.5
2022-09-30T20:20:00.661Z,89.2
2022-09-30T20:25:00.590Z,89.2
2022-09-30T20:30:00.503Z,89.2
2022-09-30T20:35:00.490Z,89.3
2022-09-30T20:40:00.524Z,89.3
2022-09-30T20:45:00.457Z,88.7
2022-09-30T20:50:00.529Z,88.4
2022-09-30T20:55:00.659Z,88.7
2022-09-30T21:00:00.509Z,88.6
2022-09-30T21:05:00.512Z,88.6
2022-09-30T21:10:00.596Z,88.9
2022-09-30T21:15:00.562Z,88.5
2022-09-30T21:20:00.581Z,88.5
2022-09-30T21:25:00.519Z,89.1
2022-09-30T21:30:00.602Z,89.4
2022-09-30T21:35:00.569Z,90
2022-09-30T21:40:00.597Z,90.7
2022-09-30T21:45:00.547Z,91
2022-09-30T21:50:00.551Z,91.6
2022-09-30T21:55:00.545Z,91.9
2022-09-30T22:00:00.650Z,92.3
2022-09-30T22:05:00.599Z,92.6
2022-09-30T22:10:00.607Z,92.9
2022-09-30T22:15:00.617Z,92.6
2022-09-30T22:20:00.600Z,92.3
2022-09-30T22:25:00.536Z,92.7
2022-09-30T22:30:00.398Z,92.7
2022-09-30T22:35:00.312Z,93
2022-09-30T22:40:01.198Z,93
2022-09-30T22:45:00.240Z,93
2022-09-30T22:50:00.236Z,93
2022-09-30T22:55:00.267Z,92.7
2022-09-30T23:00:00.255Z,93.1
2022-09-30T23:05:00.232Z,92.7
2022-09-30T23:10:00.272Z,92.7
2022-09-30T23:15:00.254Z,92.4
2022-09-30T23:20:00.262Z,91.8
2022-09-30T23:25:00.268Z,91.8
2022-09-30T23:30:00.269Z,91.8
2022-09-30T23:35:00.436Z,91.8
2022-09-30T23:40:00.421Z,91.8
2022-09-30T23:45:00.355Z,91.8
2022-09-30T23:50:00.369Z,92.5
2022-09-30T23:55:00.330Z,92.4
